sensor_id;sensor_type;location;lat;lon;timestamp;P1;durP1;ratioP1;P2;durP2;ratioP2
81209;SDS011;70685;52.496;13.420;2023-08-20T00:01:05;14.45;;;13.02;;
81209;SDS011;70685;52.496;13.420;2023-08-20T00:03:40;13.90;;;12.82;;
81209;SDS011;70685;52.496;13.420;2023-08-20T00:06:07;15.52;;;14.15;;
81209;SDS011;70685;52.496;13.420;2023-08-20T00:08:32;14.60;;;13.40;;
81209;SDS011;70685;52.496;13.420;2023-08-20T00:10:58;14.27;;;13.27;;
81209;SDS011;70685;52.496;13.420;2023-08-20T00:13:24;15.88;;;14.32;;
81209;SDS011;70685;52.496;13.420;2023-08-20T00:15:50;14.90;;;12.75;;
81209;SDS011;70685;52.496;13.420;2023-08-20T00:18:15;16.48;;;15.07;;
81209;SDS011;70685;52.496;13.420;2023-08-20T00:20:41;16.02;;;14.77;;
81209;SDS011;70685;52.496;13.420;2023-08-20T00:23:07;13.80;;;12.70;;
81209;SDS011;70685;52.496;13.420;2023-08-20T00:25:38;14.38;;;13.32;;
81209;SDS011;70685;52.496;13.420;2023-08-20T00:28:06;14.57;;;13.18;;
81209;SDS011;70685;52.496;13.420;2023-08-20T00:30:32;13.07;;;11.93;;
81209;SDS011;70685;52.496;13.420;2023-08-20T00:32:57;13.23;;;12.23;;
81209;SDS011;70685;52.496;13.420;2023-08-20T00:35:23;15.07;;;12.65;;
81209;SDS011;70685;52.496;13.420;2023-08-20T00:37:52;13.57;;;12.43;;
81209;SDS011;70685;52.496;13.420;2023-08-20T00:40:20;13.98;;;12.57;;
81209;SDS011;70685;52.496;13.420;2023-08-20T00:42:48;13.52;;;12.65;;
81209;SDS011;70685;52.496;13.420;2023-08-20T00:45:14;14.15;;;13.10;;
81209;SDS011;70685;52.496;13.420;2023-08-20T00:47:43;13.55;;;12.52;;
81209;SDS011;70685;52.496;13.420;2023-08-20T00:50:11;13.60;;;12.32;;
81209;SDS011;70685;52.496;13.420;2023-08-20T00:52:41;13.02;;;12.07;;
81209;SDS011;70685;52.496;13.420;2023-08-20T00:55:11;14.52;;;13.45;;
81209;SDS011;70685;52.496;13.420;2023-08-20T00:57:38;14.20;;;12.90;;
81209;SDS011;70685;52.496;13.420;2023-08-20T01:00:07;13.93;;;12.82;;
81209;SDS011;70685;52.496;13.420;2023-08-20T01:02:34;13.35;;;12.25;;
81209;SDS011;70685;52.496;13.420;2023-08-20T01:05:00;14.18;;;13.00;;
81209;SDS011;70685;52.496;13.420;2023-08-20T01:07:33;13.27;;;12.40;;
81209;SDS011;70685;52.496;13.420;2023-08-20T01:10:11;13.55;;;12.20;;
81209;SDS011;70685;52.496;13.420;2023-08-20T01:12:58;12.85;;;11.75;;
81209;SDS011;70685;52.496;13.420;2023-08-20T01:15:25;12.73;;;11.18;;
81209;SDS011;70685;52.496;13.420;2023-08-20T01:17:51;12.27;;;11.27;;
81209;SDS011;70685;52.496;13.420;2023-08-20T01:20:17;12.65;;;11.10;;
81209;SDS011;70685;52.496;13.420;2023-08-20T01:30:59;14.07;;;11.37;;
81209;SDS011;70685;52.496;13.420;2023-08-20T01:33:25;12.63;;;11.45;;
81209;SDS011;70685;52.496;13.420;2023-08-20T01:35:54;12.27;;;11.00;;
81209;SDS011;70685;52.496;13.420;2023-08-20T01:38:21;12.18;;;11.05;;
81209;SDS011;70685;52.496;13.420;2023-08-20T01:40:49;14.82;;;11.98;;
81209;SDS011;70685;52.496;13.420;2023-08-20T01:43:17;15.77;;;10.77;;
81209;SDS011;70685;52.496;13.420;2023-08-20T01:45:48;12.27;;;11.25;;
81209;SDS011;70685;52.496;13.420;2023-08-20T01:48:15;12.83;;;11.93;;
81209;SDS011;70685;52.496;13.420;2023-08-20T01:50:43;13.55;;;12.23;;
81209;SDS011;70685;52.496;13.420;2023-08-20T01:53:11;12.82;;;11.57;;
81209;SDS011;70685;52.496;13.420;2023-08-20T01:55:40;13.25;;;11.68;;
81209;SDS011;70685;52.496;13.420;2023-08-20T01:58:05;12.13;;;10.93;;
81209;SDS011;70685;52.496;13.420;2023-08-20T02:00:33;12.70;;;11.52;;
81209;SDS011;70685;52.496;13.420;2023-08-20T02:02:59;13.77;;;12.38;;
81209;SDS011;70685;52.496;13.420;2023-08-20T02:05:27;13.63;;;12.23;;
81209;SDS011;70685;52.496;13.420;2023-08-20T02:07:55;17.63;;;11.00;;
81209;SDS011;70685;52.496;13.420;2023-08-20T02:10:20;12.20;;;11.30;;
81209;SDS011;70685;52.496;13.420;2023-08-20T02:12:46;12.30;;;11.32;;
81209;SDS011;70685;52.496;13.420;2023-08-20T02:15:12;12.18;;;11.13;;
81209;SDS011;70685;52.496;13.420;2023-08-20T02:17:38;12.32;;;11.23;;
81209;SDS011;70685;52.496;13.420;2023-08-20T02:20:03;12.55;;;11.57;;
81209;SDS011;70685;52.496;13.420;2023-08-20T02:22:32;11.68;;;10.57;;
81209;SDS011;70685;52.496;13.420;2023-08-20T02:24:59;14.23;;;12.55;;
81209;SDS011;70685;52.496;13.420;2023-08-20T02:27:24;12.45;;;11.45;;
81209;SDS011;70685;52.496;13.420;2023-08-20T02:29:50;12.50;;;11.43;;
81209;SDS011;70685;52.496;13.420;2023-08-20T02:32:20;12.47;;;11.37;;
81209;SDS011;70685;52.496;13.420;2023-08-20T02:34:49;12.38;;;11.38;;
81209;SDS011;70685;52.496;13.420;2023-08-20T02:37:15;11.93;;;10.82;;
81209;SDS011;70685;52.496;13.420;2023-08-20T02:39:46;13.73;;;11.35;;
81209;SDS011;70685;52.496;13.420;2023-08-20T02:42:12;12.35;;;11.13;;
81209;SDS011;70685;52.496;13.420;2023-08-20T02:44:40;11.45;;;10.30;;
81209;SDS011;70685;52.496;13.420;2023-08-20T02:47:05;12.02;;;10.95;;
81209;SDS011;70685;52.496;13.420;2023-08-20T02:49:33;11.70;;;10.68;;
81209;SDS011;70685;52.496;13.420;2023-08-20T02:51:59;11.77;;;10.68;;
81209;SDS011;70685;52.496;13.420;2023-08-20T02:54:27;13.57;;;11.38;;
81209;SDS011;70685;52.496;13.420;2023-08-20T02:56:57;11.10;;;10.07;;
81209;SDS011;70685;52.496;13.420;2023-08-20T02:59:27;11.88;;;10.48;;
81209;SDS011;70685;52.496;13.420;2023-08-20T03:01:53;10.57;;;9.67;;
81209;SDS011;70685;52.496;13.420;2023-08-20T03:04:21;12.45;;;10.90;;
81209;SDS011;70685;52.496;13.420;2023-08-20T03:06:46;11.68;;;10.63;;
81209;SDS011;70685;52.496;13.420;2023-08-20T03:09:12;13.35;;;10.13;;
81209;SDS011;70685;52.496;13.420;2023-08-20T03:11:40;13.43;;;11.00;;
81209;SDS011;70685;52.496;13.420;2023-08-20T03:14:05;11.95;;;10.43;;
81209;SDS011;70685;52.496;13.420;2023-08-20T03:16:33;10.60;;;9.80;;
81209;SDS011;70685;52.496;13.420;2023-08-20T03:19:01;11.10;;;9.98;;
81209;SDS011;70685;52.496;13.420;2023-08-20T03:21:27;10.73;;;9.82;;
81209;SDS011;70685;52.496;13.420;2023-08-20T03:23:53;10.35;;;9.45;;
81209;SDS011;70685;52.496;13.420;2023-08-20T03:26:21;11.43;;;10.30;;
81209;SDS011;70685;52.496;13.420;2023-08-20T03:28:46;10.95;;;10.10;;
81209;SDS011;70685;52.496;13.420;2023-08-20T03:31:14;10.60;;;9.68;;
81209;SDS011;70685;52.496;13.420;2023-08-20T03:33:39;12.15;;;9.77;;
81209;SDS011;70685;52.496;13.420;2023-08-20T03:36:10;10.90;;;9.90;;
81209;SDS011;70685;52.496;13.420;2023-08-20T03:38:35;10.23;;;9.33;;
81209;SDS011;70685;52.496;13.420;2023-08-20T03:41:01;10.73;;;9.80;;
81209;SDS011;70685;52.496;13.420;2023-08-20T03:43:28;10.73;;;9.65;;
81209;SDS011;70685;52.496;13.420;2023-08-20T03:45:53;12.48;;;10.20;;
81209;SDS011;70685;52.496;13.420;2023-08-20T03:48:19;10.98;;;10.05;;
81209;SDS011;70685;52.496;13.420;2023-08-20T03:50:46;11.70;;;10.25;;
81209;SDS011;70685;52.496;13.420;2023-08-20T03:53:13;11.75;;;10.68;;
81209;SDS011;70685;52.496;13.420;2023-08-20T03:55:40;11.20;;;10.23;;
81209;SDS011;70685;52.496;13.420;2023-08-20T03:58:08;11.00;;;10.00;;
81209;SDS011;70685;52.496;13.420;2023-08-20T04:00:36;10.30;;;9.60;;
81209;SDS011;70685;52.496;13.420;2023-08-20T04:03:02;11.73;;;10.55;;
81209;SDS011;70685;52.496;13.420;2023-08-20T04:05:28;13.75;;;10.32;;
81209;SDS011;70685;52.496;13.420;2023-08-20T04:07:56;11.40;;;10.57;;
81209;SDS011;70685;52.496;13.420;2023-08-20T04:10:22;11.05;;;10.15;;
81209;SDS011;70685;52.496;13.420;2023-08-20T04:12:47;12.68;;;11.13;;
81209;SDS011;70685;52.496;13.420;2023-08-20T04:15:13;11.40;;;10.38;;
81209;SDS011;70685;52.496;13.420;2023-08-20T04:17:38;11.25;;;10.25;;
81209;SDS011;70685;52.496;13.420;2023-08-20T04:20:04;11.18;;;10.07;;
81209;SDS011;70685;52.496;13.420;2023-08-20T04:24:58;11.15;;;10.05;;
81209;SDS011;70685;52.496;13.420;2023-08-20T04:27:24;11.43;;;10.23;;
81209;SDS011;70685;52.496;13.420;2023-08-20T04:29:50;10.85;;;10.07;;
81209;SDS011;70685;52.496;13.420;2023-08-20T04:32:17;12.23;;;10.82;;
81209;SDS011;70685;52.496;13.420;2023-08-20T04:34:43;11.15;;;10.30;;
81209;SDS011;70685;52.496;13.420;2023-08-20T04:37:13;11.07;;;10.20;;
81209;SDS011;70685;52.496;13.420;2023-08-20T04:39:38;11.80;;;10.43;;
81209;SDS011;70685;52.496;13.420;2023-08-20T04:42:04;11.65;;;10.75;;
81209;SDS011;70685;52.496;13.420;2023-08-20T04:44:32;11.95;;;10.85;;
81209;SDS011;70685;52.496;13.420;2023-08-20T04:47:00;12.23;;;11.02;;
81209;SDS011;70685;52.496;13.420;2023-08-20T04:49:25;14.98;;;10.77;;
81209;SDS011;70685;52.496;13.420;2023-08-20T04:51:53;12.32;;;10.88;;
81209;SDS011;70685;52.496;13.420;2023-08-20T04:54:19;12.02;;;10.93;;
81209;SDS011;70685;52.496;13.420;2023-08-20T04:56:45;12.60;;;11.07;;
81209;SDS011;70685;52.496;13.420;2023-08-20T04:59:10;11.82;;;10.70;;
81209;SDS011;70685;52.496;13.420;2023-08-20T05:01:37;11.27;;;10.40;;
81209;SDS011;70685;52.496;13.420;2023-08-20T05:04:03;14.98;;;10.57;;
81209;SDS011;70685;52.496;13.420;2023-08-20T05:06:29;14.13;;;10.07;;
81209;SDS011;70685;52.496;13.420;2023-08-20T05:08:55;15.60;;;10.35;;
81209;SDS011;70685;52.496;13.420;2023-08-20T05:11:20;11.57;;;10.48;;
81209;SDS011;70685;52.496;13.420;2023-08-20T05:13:47;10.93;;;9.90;;
81209;SDS011;70685;52.496;13.420;2023-08-20T05:16:14;11.80;;;10.93;;
81209;SDS011;70685;52.496;13.420;2023-08-20T05:18:43;12.23;;;11.10;;
81209;SDS011;70685;52.496;13.420;2023-08-20T05:21:11;12.95;;;11.85;;
81209;SDS011;70685;52.496;13.420;2023-08-20T05:23:39;12.05;;;10.95;;
81209;SDS011;70685;52.496;13.420;2023-08-20T05:26:06;12.77;;;11.50;;
81209;SDS011;70685;52.496;13.420;2023-08-20T05:28:32;11.73;;;10.80;;
81209;SDS011;70685;52.496;13.420;2023-08-20T05:30:58;12.10;;;10.95;;
81209;SDS011;70685;52.496;13.420;2023-08-20T05:33:26;12.75;;;11.38;;
81209;SDS011;70685;52.496;13.420;2023-08-20T05:35:52;13.40;;;12.05;;
81209;SDS011;70685;52.496;13.420;2023-08-20T05:38:18;12.23;;;11.10;;
81209;SDS011;70685;52.496;13.420;2023-08-20T05:40:43;12.23;;;11.43;;
81209;SDS011;70685;52.496;13.420;2023-08-20T05:43:12;11.98;;;10.73;;
81209;SDS011;70685;52.496;13.420;2023-08-20T05:45:37;13.00;;;11.88;;
81209;SDS011;70685;52.496;13.420;2023-08-20T05:48:05;13.85;;;12.27;;
81209;SDS011;70685;52.496;13.420;2023-08-20T05:50:33;15.10;;;11.88;;
81209;SDS011;70685;52.496;13.420;2023-08-20T05:53:01;13.70;;;11.80;;
81209;SDS011;70685;52.496;13.420;2023-08-20T05:55:29;13.70;;;12.43;;
81209;SDS011;70685;52.496;13.420;2023-08-20T05:57:57;12.68;;;11.63;;
81209;SDS011;70685;52.496;13.420;2023-08-20T06:00:23;12.80;;;11.65;;
81209;SDS011;70685;52.496;13.420;2023-08-20T06:02:48;13.45;;;12.30;;
81209;SDS011;70685;52.496;13.420;2023-08-20T06:05:14;14.35;;;13.00;;
81209;SDS011;70685;52.496;13.420;2023-08-20T06:07:42;13.03;;;11.67;;
81209;SDS011;70685;52.496;13.420;2023-08-20T06:10:07;11.25;;;10.25;;
81209;SDS011;70685;52.496;13.420;2023-08-20T06:12:37;10.90;;;10.00;;
81209;SDS011;70685;52.496;13.420;2023-08-20T06:15:03;10.80;;;9.90;;
81209;SDS011;70685;52.496;13.420;2023-08-20T06:17:29;11.15;;;10.38;;
81209;SDS011;70685;52.496;13.420;2023-08-20T06:19:55;10.52;;;9.93;;
81209;SDS011;70685;52.496;13.420;2023-08-20T06:22:23;11.60;;;10.65;;
81209;SDS011;70685;52.496;13.420;2023-08-20T06:24:51;12.20;;;11.10;;
81209;SDS011;70685;52.496;13.420;2023-08-20T06:27:22;11.43;;;10.73;;
81209;SDS011;70685;52.496;13.420;2023-08-20T06:29:47;11.73;;;10.93;;
81209;SDS011;70685;52.496;13.420;2023-08-20T06:32:15;12.40;;;11.48;;
81209;SDS011;70685;52.496;13.420;2023-08-20T06:34:46;12.95;;;11.73;;
81209;SDS011;70685;52.496;13.420;2023-08-20T06:37:14;13.45;;;12.18;;
81209;SDS011;70685;52.496;13.420;2023-08-20T06:39:39;14.40;;;13.02;;
81209;SDS011;70685;52.496;13.420;2023-08-20T06:42:08;13.25;;;12.05;;
81209;SDS011;70685;52.496;13.420;2023-08-20T06:44:36;12.48;;;11.07;;
81209;SDS011;70685;52.496;13.420;2023-08-20T06:47:01;13.30;;;12.25;;
81209;SDS011;70685;52.496;13.420;2023-08-20T06:49:27;13.85;;;12.20;;
81209;SDS011;70685;52.496;13.420;2023-08-20T06:51:53;12.55;;;11.23;;
81209;SDS011;70685;52.496;13.420;2023-08-20T06:54:18;13.40;;;11.50;;
81209;SDS011;70685;52.496;13.420;2023-08-20T06:56:44;12.63;;;11.52;;
81209;SDS011;70685;52.496;13.420;2023-08-20T06:59:10;12.35;;;11.25;;
81209;SDS011;70685;52.496;13.420;2023-08-20T07:01:35;12.57;;;11.32;;
81209;SDS011;70685;52.496;13.420;2023-08-20T07:04:03;12.13;;;11.23;;
81209;SDS011;70685;52.496;13.420;2023-08-20T07:06:32;12.18;;;11.13;;
81209;SDS011;70685;52.496;13.420;2023-08-20T07:08:57;13.43;;;11.80;;
81209;SDS011;70685;52.496;13.420;2023-08-20T07:11:23;12.43;;;11.10;;
81209;SDS011;70685;52.496;13.420;2023-08-20T07:13:49;12.88;;;11.75;;
81209;SDS011;70685;52.496;13.420;2023-08-20T07:16:17;12.90;;;11.65;;
81209;SDS011;70685;52.496;13.420;2023-08-20T07:18:42;12.52;;;11.45;;
81209;SDS011;70685;52.496;13.420;2023-08-20T07:21:12;14.93;;;11.80;;
81209;SDS011;70685;52.496;13.420;2023-08-20T07:23:42;11.68;;;10.68;;
81209;SDS011;70685;52.496;13.420;2023-08-20T07:26:09;11.27;;;10.35;;
81209;SDS011;70685;52.496;13.420;2023-08-20T07:28:40;11.52;;;10.43;;
81209;SDS011;70685;52.496;13.420;2023-08-20T07:31:21;12.60;;;11.27;;
81209;SDS011;70685;52.496;13.420;2023-08-20T07:33:54;10.98;;;10.23;;
81209;SDS011;70685;52.496;13.420;2023-08-20T07:36:23;10.98;;;9.98;;
81209;SDS011;70685;52.496;13.420;2023-08-20T07:38:51;11.10;;;10.20;;
81209;SDS011;70685;52.496;13.420;2023-08-20T07:41:21;11.32;;;10.10;;
81209;SDS011;70685;52.496;13.420;2023-08-20T07:43:47;11.70;;;10.52;;
81209;SDS011;70685;52.496;13.420;2023-08-20T07:46:15;13.40;;;10.32;;
81209;SDS011;70685;52.496;13.420;2023-08-20T07:48:41;11.32;;;10.35;;
81209;SDS011;70685;52.496;13.420;2023-08-20T07:51:10;13.35;;;10.68;;
81209;SDS011;70685;52.496;13.420;2023-08-20T07:53:38;11.85;;;10.60;;
81209;SDS011;70685;52.496;13.420;2023-08-20T07:56:04;11.55;;;10.50;;
81209;SDS011;70685;52.496;13.420;2023-08-20T07:58:31;16.35;;;14.88;;
81209;SDS011;70685;52.496;13.420;2023-08-20T08:00:57;14.00;;;12.70;;
81209;SDS011;70685;52.496;13.420;2023-08-20T08:03:24;13.35;;;11.90;;
81209;SDS011;70685;52.496;13.420;2023-08-20T08:05:51;12.38;;;11.38;;
81209;SDS011;70685;52.496;13.420;2023-08-20T08:08:19;15.60;;;10.57;;
81209;SDS011;70685;52.496;13.420;2023-08-20T08:10:48;16.33;;;14.80;;
81209;SDS011;70685;52.496;13.420;2023-08-20T08:13:15;10.88;;;9.88;;
81209;SDS011;70685;52.496;13.420;2023-08-20T08:15:45;10.73;;;9.70;;
81209;SDS011;70685;52.496;13.420;2023-08-20T08:18:17;10.20;;;9.18;;
81209;SDS011;70685;52.496;13.420;2023-08-20T08:20:46;10.20;;;9.32;;
81209;SDS011;70685;52.496;13.420;2023-08-20T08:23:12;8.95;;;7.97;;
81209;SDS011;70685;52.496;13.420;2023-08-20T08:25:40;9.48;;;8.73;;
81209;SDS011;70685;52.496;13.420;2023-08-20T08:28:06;10.50;;;9.73;;
81209;SDS011;70685;52.496;13.420;2023-08-20T08:30:34;19.70;;;17.92;;
81209;SDS011;70685;52.496;13.420;2023-08-20T08:33:02;17.90;;;16.15;;
81209;SDS011;70685;52.496;13.420;2023-08-20T08:35:28;15.00;;;13.88;;
81209;SDS011;70685;52.496;13.420;2023-08-20T08:37:54;12.13;;;11.10;;
81209;SDS011;70685;52.496;13.420;2023-08-20T08:40:20;8.52;;;7.95;;
81209;SDS011;70685;52.496;13.420;2023-08-20T08:42:50;11.80;;;10.90;;
81209;SDS011;70685;52.496;13.420;2023-08-20T08:45:17;9.75;;;8.85;;
81209;SDS011;70685;52.496;13.420;2023-08-20T08:47:44;8.07;;;7.45;;
81209;SDS011;70685;52.496;13.420;2023-08-20T08:50:13;8.88;;;8.15;;
81209;SDS011;70685;52.496;13.420;2023-08-20T08:52:39;6.78;;;6.32;;
81209;SDS011;70685;52.496;13.420;2023-08-20T08:55:10;6.70;;;6.20;;
81209;SDS011;70685;52.496;13.420;2023-08-20T08:57:36;6.72;;;6.22;;
81209;SDS011;70685;52.496;13.420;2023-08-20T09:00:05;7.80;;;7.20;;
81209;SDS011;70685;52.496;13.420;2023-08-20T09:02:34;6.13;;;5.70;;
81209;SDS011;70685;52.496;13.420;2023-08-20T09:04:59;5.53;;;5.15;;
81209;SDS011;70685;52.496;13.420;2023-08-20T09:07:25;8.20;;;5.70;;
81209;SDS011;70685;52.496;13.420;2023-08-20T09:09:51;6.45;;;5.95;;
81209;SDS011;70685;52.496;13.420;2023-08-20T09:12:24;6.13;;;5.50;;
81209;SDS011;70685;52.496;13.420;2023-08-20T09:14:52;5.82;;;5.40;;
81209;SDS011;70685;52.496;13.420;2023-08-20T09:17:19;10.80;;;10.13;;
81209;SDS011;70685;52.496;13.420;2023-08-20T09:19:49;9.10;;;8.52;;
81209;SDS011;70685;52.496;13.420;2023-08-20T09:22:15;5.88;;;5.38;;
81209;SDS011;70685;52.496;13.420;2023-08-20T09:24:51;17.52;;;16.27;;
81209;SDS011;70685;52.496;13.420;2023-08-20T09:27:20;5.80;;;5.28;;
81209;SDS011;70685;52.496;13.420;2023-08-20T09:29:47;7.70;;;7.20;;
81209;SDS011;70685;52.496;13.420;2023-08-20T09:34:39;6.38;;;6.07;;
81209;SDS011;70685;52.496;13.420;2023-08-20T09:37:08;4.97;;;4.63;;
81209;SDS011;70685;52.496;13.420;2023-08-20T09:39:35;4.85;;;4.47;;
81209;SDS011;70685;52.496;13.420;2023-08-20T09:42:03;5.07;;;4.30;;
81209;SDS011;70685;52.496;13.420;2023-08-20T09:44:36;4.95;;;4.60;;
81209;SDS011;70685;52.496;13.420;2023-08-20T09:47:09;4.85;;;4.55;;
81209;SDS011;70685;52.496;13.420;2023-08-20T09:52:06;4.78;;;4.45;;
81209;SDS011;70685;52.496;13.420;2023-08-20T09:57:23;4.50;;;4.20;;
81209;SDS011;70685;52.496;13.420;2023-08-20T09:59:59;4.20;;;3.83;;
81209;SDS011;70685;52.496;13.420;2023-08-20T10:02:28;4.40;;;4.03;;
81209;SDS011;70685;52.496;13.420;2023-08-20T10:04:56;4.15;;;3.85;;
81209;SDS011;70685;52.496;13.420;2023-08-20T10:07:26;4.22;;;3.92;;
81209;SDS011;70685;52.496;13.420;2023-08-20T10:09:59;3.75;;;3.47;;
81209;SDS011;70685;52.496;13.420;2023-08-20T10:12:30;3.35;;;3.05;;
81209;SDS011;70685;52.496;13.420;2023-08-20T10:14:59;3.53;;;3.33;;
81209;SDS011;70685;52.496;13.420;2023-08-20T10:17:25;3.30;;;3.10;;
81209;SDS011;70685;52.496;13.420;2023-08-20T10:19:55;5.03;;;3.75;;
81209;SDS011;70685;52.496;13.420;2023-08-20T10:22:25;3.08;;;2.88;;
81209;SDS011;70685;52.496;13.420;2023-08-20T10:25:01;3.80;;;3.28;;
81209;SDS011;70685;52.496;13.420;2023-08-20T10:27:35;3.80;;;3.30;;
81209;SDS011;70685;52.496;13.420;2023-08-20T10:30:07;3.95;;;3.13;;
81209;SDS011;70685;52.496;13.420;2023-08-20T10:32:54;3.35;;;3.05;;
81209;SDS011;70685;52.496;13.420;2023-08-20T10:35:27;3.50;;;3.30;;
81209;SDS011;70685;52.496;13.420;2023-08-20T10:48:47;2.30;;;2.10;;
81209;SDS011;70685;52.496;13.420;2023-08-20T10:56:37;2.40;;;2.30;;
81209;SDS011;70685;52.496;13.420;2023-08-20T10:59:09;2.55;;;2.30;;
81209;SDS011;70685;52.496;13.420;2023-08-20T11:01:38;2.70;;;2.50;;
81209;SDS011;70685;52.496;13.420;2023-08-20T11:04:05;2.17;;;2.05;;
81209;SDS011;70685;52.496;13.420;2023-08-20T11:06:32;2.22;;;2.13;;
81209;SDS011;70685;52.496;13.420;2023-08-20T11:09:01;2.90;;;2.70;;
81209;SDS011;70685;52.496;13.420;2023-08-20T11:11:30;2.45;;;2.25;;
81209;SDS011;70685;52.496;13.420;2023-08-20T11:13:57;4.80;;;1.90;;
81209;SDS011;70685;52.496;13.420;2023-08-20T11:16:35;4.63;;;2.35;;
81209;SDS011;70685;52.496;13.420;2023-08-20T11:19:02;2.30;;;2.20;;
81209;SDS011;70685;52.496;13.420;2023-08-20T11:21:36;3.50;;;3.20;;
81209;SDS011;70685;52.496;13.420;2023-08-20T11:24:04;3.58;;;2.22;;
81209;SDS011;70685;52.496;13.420;2023-08-20T11:29:05;2.20;;;2.00;;
81209;SDS011;70685;52.496;13.420;2023-08-20T11:31:31;1.92;;;1.83;;
81209;SDS011;70685;52.496;13.420;2023-08-20T11:34:01;2.03;;;1.80;;
81209;SDS011;70685;52.496;13.420;2023-08-20T11:36:27;3.50;;;2.08;;
81209;SDS011;70685;52.496;13.420;2023-08-20T11:38:53;2.92;;;2.20;;
81209;SDS011;70685;52.496;13.420;2023-08-20T11:41:22;2.03;;;1.90;;
81209;SDS011;70685;52.496;13.420;2023-08-20T11:43:49;6.25;;;2.22;;
81209;SDS011;70685;52.496;13.420;2023-08-20T11:46:18;2.13;;;1.92;;
81209;SDS011;70685;52.496;13.420;2023-08-20T11:54:08;2.28;;;1.75;;
81209;SDS011;70685;52.496;13.420;2023-08-20T11:59:10;2.27;;;2.10;;
81209;SDS011;70685;52.496;13.420;2023-08-20T12:01:39;2.17;;;2.08;;
81209;SDS011;70685;52.496;13.420;2023-08-20T12:04:10;2.25;;;2.05;;
81209;SDS011;70685;52.496;13.420;2023-08-20T12:06:38;2.65;;;1.95;;
81209;SDS011;70685;52.496;13.420;2023-08-20T12:09:23;2.20;;;2.10;;
81209;SDS011;70685;52.496;13.420;2023-08-20T12:11:52;3.83;;;2.10;;
81209;SDS011;70685;52.496;13.420;2023-08-20T12:14:23;2.35;;;1.90;;
81209;SDS011;70685;52.496;13.420;2023-08-20T12:16:52;2.65;;;1.83;;
81209;SDS011;70685;52.496;13.420;2023-08-20T12:19:23;2.42;;;2.22;;
81209;SDS011;70685;52.496;13.420;2023-08-20T12:21:51;1.92;;;1.73;;
81209;SDS011;70685;52.496;13.420;2023-08-20T12:24:21;2.10;;;1.90;;
81209;SDS011;70685;52.496;13.420;2023-08-20T12:26:47;2.17;;;1.75;;
81209;SDS011;70685;52.496;13.420;2023-08-20T12:29:16;1.90;;;1.80;;
81209;SDS011;70685;52.496;13.420;2023-08-20T12:31:41;2.08;;;1.80;;
81209;SDS011;70685;52.496;13.420;2023-08-20T12:34:07;1.90;;;1.80;;
81209;SDS011;70685;52.496;13.420;2023-08-20T12:36:35;4.65;;;2.00;;
81209;SDS011;70685;52.496;13.420;2023-08-20T12:39:01;2.13;;;2.00;;
81209;SDS011;70685;52.496;13.420;2023-08-20T12:41:32;2.67;;;1.85;;
81209;SDS011;70685;52.496;13.420;2023-08-20T12:44:03;2.55;;;1.60;;
81209;SDS011;70685;52.496;13.420;2023-08-20T12:46:29;3.00;;;1.90;;
81209;SDS011;70685;52.496;13.420;2023-08-20T12:48:57;2.17;;;1.98;;
81209;SDS011;70685;52.496;13.420;2023-08-20T12:51:23;2.90;;;1.58;;
81209;SDS011;70685;52.496;13.420;2023-08-20T12:53:48;1.98;;;1.88;;
81209;SDS011;70685;52.496;13.420;2023-08-20T12:56:14;4.50;;;2.00;;
81209;SDS011;70685;52.496;13.420;2023-08-20T12:58:41;1.80;;;1.70;;
81209;SDS011;70685;52.496;13.420;2023-08-20T13:01:06;5.82;;;1.70;;
81209;SDS011;70685;52.496;13.420;2023-08-20T13:03:32;1.90;;;1.67;;
81209;SDS011;70685;52.496;13.420;2023-08-20T13:05:58;4.45;;;2.00;;
81209;SDS011;70685;52.496;13.420;2023-08-20T13:08:26;1.83;;;1.73;;
81209;SDS011;70685;52.496;13.420;2023-08-20T13:10:56;1.52;;;1.42;;
81209;SDS011;70685;52.496;13.420;2023-08-20T13:13:24;2.22;;;2.00;;
81209;SDS011;70685;52.496;13.420;2023-08-20T13:15:53;2.05;;;1.90;;
81209;SDS011;70685;52.496;13.420;2023-08-20T13:18:19;4.35;;;1.73;;
81209;SDS011;70685;52.496;13.420;2023-08-20T13:20:49;1.63;;;1.52;;
81209;SDS011;70685;52.496;13.420;2023-08-20T13:23:19;3.15;;;2.00;;
81209;SDS011;70685;52.496;13.420;2023-08-20T13:25:45;3.10;;;2.08;;
81209;SDS011;70685;52.496;13.420;2023-08-20T13:28:11;3.97;;;3.33;;
81209;SDS011;70685;52.496;13.420;2023-08-20T13:30:39;2.25;;;2.15;;
81209;SDS011;70685;52.496;13.420;2023-08-20T13:33:05;4.95;;;1.85;;
81209;SDS011;70685;52.496;13.420;2023-08-20T13:35:35;1.50;;;1.40;;
81209;SDS011;70685;52.496;13.420;2023-08-20T13:38:01;1.52;;;1.42;;
81209;SDS011;70685;52.496;13.420;2023-08-20T13:40:30;2.53;;;2.33;;
81209;SDS011;70685;52.496;13.420;2023-08-20T13:42:55;1.83;;;1.55;;
81209;SDS011;70685;52.496;13.420;2023-08-20T13:47:49;4.00;;;2.28;;
81209;SDS011;70685;52.496;13.420;2023-08-20T13:50:17;2.65;;;2.33;;
81209;SDS011;70685;52.496;13.420;2023-08-20T13:52:43;2.20;;;1.95;;
81209;SDS011;70685;52.496;13.420;2023-08-20T13:55:08;1.98;;;1.80;;
81209;SDS011;70685;52.496;13.420;2023-08-20T13:57:40;1.80;;;1.70;;
81209;SDS011;70685;52.496;13.420;2023-08-20T14:00:08;1.70;;;1.60;;
81209;SDS011;70685;52.496;13.420;2023-08-20T14:02:37;2.63;;;2.42;;
81209;SDS011;70685;52.496;13.420;2023-08-20T14:05:03;2.85;;;2.03;;
81209;SDS011;70685;52.496;13.420;2023-08-20T14:07:32;2.33;;;1.80;;
81209;SDS011;70685;52.496;13.420;2023-08-20T14:10:03;2.95;;;2.28;;
81209;SDS011;70685;52.496;13.420;2023-08-20T14:12:29;1.92;;;1.77;;
81209;SDS011;70685;52.496;13.420;2023-08-20T14:14:55;2.28;;;2.08;;
81209;SDS011;70685;52.496;13.420;2023-08-20T14:17:25;3.50;;;2.55;;
81209;SDS011;70685;52.496;13.420;2023-08-20T14:19:54;2.97;;;2.03;;
81209;SDS011;70685;52.496;13.420;2023-08-20T14:22:19;4.40;;;2.20;;
81209;SDS011;70685;52.496;13.420;2023-08-20T14:24:45;1.85;;;1.70;;
81209;SDS011;70685;52.496;13.420;2023-08-20T14:27:11;3.25;;;2.20;;
81209;SDS011;70685;52.496;13.420;2023-08-20T14:29:37;4.53;;;2.47;;
81209;SDS011;70685;52.496;13.420;2023-08-20T14:32:02;1.40;;;1.30;;
81209;SDS011;70685;52.496;13.420;2023-08-20T14:34:32;2.05;;;1.83;;
81209;SDS011;70685;52.496;13.420;2023-08-20T14:36:58;1.70;;;1.50;;
81209;SDS011;70685;52.496;13.420;2023-08-20T14:39:26;2.20;;;2.10;;
81209;SDS011;70685;52.496;13.420;2023-08-20T14:41:52;2.08;;;1.40;;
81209;SDS011;70685;52.496;13.420;2023-08-20T14:44:20;3.10;;;1.67;;
81209;SDS011;70685;52.496;13.420;2023-08-20T14:46:46;3.63;;;1.92;;
81209;SDS011;70685;52.496;13.420;2023-08-20T14:49:13;1.88;;;1.77;;
81209;SDS011;70685;52.496;13.420;2023-08-20T14:51:39;1.50;;;1.40;;
81209;SDS011;70685;52.496;13.420;2023-08-20T14:54:04;1.70;;;1.60;;
81209;SDS011;70685;52.496;13.420;2023-08-20T14:56:33;2.53;;;1.58;;
81209;SDS011;70685;52.496;13.420;2023-08-20T14:58:59;1.33;;;1.10;;
81209;SDS011;70685;52.496;13.420;2023-08-20T15:01:25;2.10;;;1.75;;
81209;SDS011;70685;52.496;13.420;2023-08-20T15:03:50;2.30;;;2.20;;
81209;SDS011;70685;52.496;13.420;2023-08-20T15:06:18;2.63;;;2.42;;
81209;SDS011;70685;52.496;13.420;2023-08-20T15:08:47;2.63;;;2.42;;
81209;SDS011;70685;52.496;13.420;2023-08-20T15:11:13;2.22;;;2.13;;